createdAt,value
2017-07-29T00:03:09.527Z,96.40
2017-07-29T00:05:37.818Z,96.30
2017-07-29T00:08:06.926Z,96.20
2017-07-29T00:13:05.879Z,96.30
2017-07-29T00:15:34.214Z,96.20
2017-07-29T00:18:02.513Z,96.30
2017-07-29T00:20:30.795Z,96.40
2017-07-29T00:22:59.538Z,96.40
2017-07-29T00:25:27.832Z,96.50
2017-07-29T00:27:56.127Z,96.50
2017-07-29T00:30:24.459Z,96.60
2017-07-29T00:32:52.765Z,96.50
2017-07-29T00:35:22.202Z,96.50
2017-07-29T00:37:50.557Z,96.50
2017-07-29T00:40:19.264Z,96.50
2017-07-29T00:42:48.335Z,95.90
2017-07-29T00:45:17.456Z,96.00
2017-07-29T00:47:45.746Z,96.00
2017-07-29T00:50:14.806Z,95.70
2017-07-29T00:52:43.921Z,95.50
2017-07-29T00:55:12.243Z,95.70
2017-07-29T00:57:40.931Z,95.20
2017-07-29T01:00:09.860Z,95.10
2017-07-29T01:02:39.288Z,95.10
2017-07-29T01:05:07.596Z,95.20
2017-07-29T01:07:37.093Z,95.60
2017-07-29T01:10:06.178Z,95.60
2017-07-29T01:12:34.475Z,95.40
2017-07-29T01:15:03.126Z,95.50
2017-07-29T01:17:32.178Z,95.60
2017-07-29T01:20:00.870Z,95.40
2017-07-29T01:22:30.736Z,95.20
2017-07-29T01:24:59.017Z,95.20
2017-07-29T01:29:56.906Z,95.00
2017-07-29T01:32:25.201Z,95.00
2017-07-29T01:34:53.537Z,94.60
2017-07-29T01:37:23.043Z,94.30
2017-07-29T01:39:51.825Z,94.20
2017-07-29T01:42:21.008Z,94.60
2017-07-29T01:44:50.424Z,93.90
2017-07-29T01:47:19.495Z,94.20
2017-07-29T01:49:48.947Z,94.00
2017-07-29T01:52:17.700Z,93.80
2017-07-29T01:57:17.952Z,93.80
2017-07-29T01:59:47.943Z,93.70
2017-07-29T02:02:16.227Z,93.30
2017-07-29T02:04:45.279Z,93.20
2017-07-29T02:07:14.771Z,93.00
2017-07-29T02:09:43.051Z,93.10
2017-07-29T02:12:12.160Z,93.00
2017-07-29T02:14:42.742Z,93.10
2017-07-29T02:17:11.031Z,93.00
2017-07-29T02:19:40.831Z,92.70
2017-07-29T02:22:10.686Z,92.50
2017-07-29T02:24:38.966Z,92.50
2017-07-29T02:27:07.638Z,92.50
2017-07-29T02:29:37.094Z,92.40
2017-07-29T02:32:05.379Z,92.50
2017-07-29T02:34:33.654Z,92.50
2017-07-29T02:37:03.495Z,92.20
2017-07-29T02:39:31.772Z,92.10
2017-07-29T02:42:00.050Z,92.20
2017-07-29T02:44:28.367Z,92.00
2017-07-29T02:46:56.648Z,92.00
2017-07-29T02:49:24.926Z,91.90
2017-07-29T02:51:54.747Z,91.50
2017-07-29T02:54:23.051Z,91.60
2017-07-29T02:56:51.342Z,91.60
2017-07-29T02:59:19.695Z,91.60
2017-07-29T03:01:48.005Z,91.50
2017-07-29T03:04:16.718Z,91.40
2017-07-29T03:06:45.052Z,91.20
2017-07-29T03:09:14.462Z,91.50
2017-07-29T03:11:43.502Z,91.20
2017-07-29T03:14:11.852Z,91.30
2017-07-29T03:16:40.121Z,91.40
2017-07-29T03:19:09.539Z,91.30
2017-07-29T03:21:37.978Z,91.20
2017-07-29T03:24:06.274Z,91.20
2017-07-29T03:26:34.611Z,91.00
2017-07-29T03:29:04.444Z,91.10
2017-07-29T03:31:32.723Z,91.00
2017-07-29T03:36:31.339Z,90.80
2017-07-29T03:39:00.387Z,90.80
2017-07-29T03:41:28.663Z,90.70
2017-07-29T03:43:57.751Z,90.80
2017-07-29T03:46:26.789Z,90.60
2017-07-29T03:48:55.066Z,90.60
2017-07-29T03:51:23.411Z,90.70
2017-07-29T03:53:51.716Z,90.60
2017-07-29T03:56:20.028Z,90.60
2017-07-29T03:58:48.391Z,90.60
2017-07-29T04:01:17.447Z,90.60
2017-07-29T04:03:47.456Z,90.80
2017-07-29T04:06:16.058Z,90.40
2017-07-29T04:08:44.326Z,90.30
2017-07-29T04:11:12.606Z,90.20
2017-07-29T04:13:41.186Z,90.20
2017-07-29T04:16:09.466Z,90.30
2017-07-29T04:18:38.146Z,90.20
2017-07-29T04:21:07.265Z,90.20
2017-07-29T04:23:36.319Z,90.20
2017-07-29T04:26:04.594Z,90.50
2017-07-29T04:28:33.536Z,90.50
2017-07-29T04:31:02.570Z,90.50
2017-07-29T04:33:31.256Z,90.60
2017-07-29T04:35:59.838Z,90.70
2017-07-29T04:38:28.880Z,90.80
2017-07-29T04:40:57.155Z,90.90
2017-07-29T04:43:25.745Z,90.60
2017-07-29T04:45:55.534Z,90.90
2017-07-29T04:48:23.798Z,90.80
2017-07-29T04:50:52.170Z,91.00
2017-07-29T04:55:50.398Z,91.00
2017-07-29T04:58:19.054Z,91.20
2017-07-29T05:00:48.114Z,91.00
2017-07-29T05:03:17.192Z,91.00
2017-07-29T05:05:45.530Z,90.90
2017-07-29T05:08:14.198Z,90.90
2017-07-29T05:13:12.411Z,90.90
2017-07-29T05:18:15.402Z,90.80
2017-07-29T05:20:45.178Z,90.80
2017-07-29T05:23:13.454Z,90.90
2017-07-29T05:25:41.934Z,90.90
2017-07-29T05:28:10.210Z,90.90
2017-07-29T05:33:08.803Z,90.80
2017-07-29T05:35:38.230Z,90.80
2017-07-29T05:38:06.512Z,90.80
2017-07-29T05:40:34.837Z,90.60
2017-07-29T05:43:03.882Z,90.80
2017-07-29T05:45:33.290Z,90.30
2017-07-29T05:50:32.035Z,90.40
2017-07-29T05:53:00.311Z,90.40
2017-07-29T06:00:28.766Z,90.50
2017-07-29T06:02:58.162Z,91.00
2017-07-29T06:05:26.834Z,90.20
2017-07-29T06:07:55.870Z,90.40
2017-07-29T06:10:24.507Z,89.60
2017-07-29T06:12:53.547Z,88.80
2017-07-29T06:15:21.833Z,87.90
2017-07-29T06:17:50.212Z,88.00
2017-07-29T06:20:18.511Z,86.30
2017-07-29T06:25:17.089Z,86.40
2017-07-29T06:27:45.767Z,85.80
2017-07-29T06:30:14.035Z,85.60
2017-07-29T06:32:42.367Z,85.10
2017-07-29T06:35:10.639Z,86.90
2017-07-29T06:37:38.920Z,86.20
2017-07-29T06:40:09.135Z,84.50
2017-07-29T06:42:37.419Z,85.10
2017-07-29T06:45:05.717Z,84.50
2017-07-29T06:47:34.914Z,83.10
2017-07-29T06:50:03.194Z,84.20
2017-07-29T06:52:31.483Z,84.80
2017-07-29T06:54:59.805Z,84.10
2017-07-29T06:57:28.088Z,82.50
2017-07-29T07:02:26.574Z,83.60
2017-07-29T07:04:55.611Z,83.30
2017-07-29T07:07:24.651Z,83.40
2017-07-29T07:09:54.102Z,84.30
2017-07-29T07:12:24.031Z,85.80
2017-07-29T07:14:52.318Z,82.80
2017-07-29T07:17:20.671Z,86.20
2017-07-29T07:19:48.986Z,84.50
2017-07-29T07:22:18.402Z,83.60
2017-07-29T07:24:47.440Z,81.40
2017-07-29T07:27:16.492Z,80.90
2017-07-29T07:29:44.767Z,81.40
2017-07-29T07:32:13.367Z,81.70
2017-07-29T07:34:43.145Z,81.90
2017-07-29T07:37:11.423Z,81.40
2017-07-29T07:39:40.098Z,81.80
2017-07-29T07:42:08.383Z,82.20
2017-07-29T07:44:38.206Z,83.00
2017-07-29T07:47:06.856Z,82.20
2017-07-29T07:52:05.787Z,82.20
2017-07-29T07:54:34.475Z,83.10
2017-07-29T07:57:03.881Z,82.50
2017-07-29T08:02:02.431Z,82.10
2017-07-29T08:04:32.207Z,82.20
2017-07-29T08:07:00.479Z,82.70
2017-07-29T08:09:28.810Z,82.60
2017-07-29T08:11:57.082Z,82.00
2017-07-29T08:14:25.350Z,82.50
2017-07-29T08:16:53.688Z,83.50
2017-07-29T08:19:21.990Z,84.80
2017-07-29T08:21:51.777Z,82.30
2017-07-29T08:24:20.400Z,82.00
2017-07-29T08:26:50.204Z,80.40
2017-07-29T08:29:18.495Z,80.40
2017-07-29T08:31:47.599Z,80.10
2017-07-29T08:36:45.781Z,77.50
2017-07-29T08:39:14.435Z,78.60
2017-07-29T08:41:43.847Z,77.90
2017-07-29T08:44:12.124Z,79.50
2017-07-29T08:46:40.727Z,78.70
2017-07-29T08:49:08.998Z,77.60
2017-07-29T08:51:37.287Z,77.40
2017-07-29T08:54:05.618Z,76.30
2017-07-29T08:56:35.031Z,76.20
2017-07-29T08:59:03.306Z,77.20
2017-07-29T09:01:31.634Z,76.90
2017-07-29T09:03:59.910Z,77.10
2017-07-29T09:06:29.686Z,78.00
2017-07-29T09:08:58.375Z,77.70
2017-07-29T09:11:27.046Z,77.40
2017-07-29T09:16:25.669Z,76.90
2017-07-29T09:18:55.454Z,79.00
2017-07-29T09:21:23.731Z,78.10
2017-07-29T09:23:52.793Z,80.00
2017-07-29T09:26:21.846Z,78.30
2017-07-29T09:28:50.151Z,80.00
2017-07-29T09:31:18.495Z,79.50
2017-07-29T09:33:47.188Z,79.20
2017-07-29T09:36:15.494Z,78.60
2017-07-29T09:38:44.977Z,80.70
2017-07-29T09:41:13.243Z,80.00
2017-07-29T09:46:11.810Z,81.20
2017-07-29T09:48:40.850Z,79.60
2017-07-29T09:53:39.086Z,78.70
2017-07-29T09:56:07.374Z,77.50
2017-07-29T09:58:35.657Z,80.10
2017-07-29T10:01:05.504Z,78.10
2017-07-29T10:03:33.770Z,78.50
2017-07-29T10:06:02.043Z,80.10
2017-07-29T10:08:30.390Z,77.90
2017-07-29T10:10:58.657Z,78.30
2017-07-29T10:13:26.938Z,80.30
2017-07-29T10:15:56.777Z,79.80
2017-07-29T10:18:26.559Z,77.80
2017-07-29T10:20:54.944Z,78.60
2017-07-29T10:25:53.174Z,78.20
2017-07-29T10:28:21.458Z,74.60
2017-07-29T10:30:50.150Z,76.80
2017-07-29T10:33:19.946Z,77.60
2017-07-29T10:35:48.251Z,74.70
2017-07-29T10:38:17.491Z,77.30
2017-07-29T10:40:47.659Z,73.80
2017-07-29T10:43:17.504Z,73.90
2017-07-29T10:45:46.142Z,74.60
2017-07-29T10:48:15.578Z,74.80
2017-07-29T10:50:43.874Z,69.40
2017-07-29T10:53:12.202Z,73.30
2017-07-29T10:55:40.469Z,69.90
2017-07-29T10:58:08.751Z,70.00
2017-07-29T11:00:37.103Z,67.20
2017-07-29T11:03:06.526Z,70.20
2017-07-29T11:08:05.127Z,70.40
2017-07-29T11:10:33.404Z,71.80
2017-07-29T11:13:02.806Z,70.20
2017-07-29T11:18:00.910Z,69.70
2017-07-29T11:20:29.182Z,70.40
2017-07-29T11:22:59.306Z,70.50
2017-07-29T11:25:27.575Z,70.10
2017-07-29T11:27:55.862Z,68.30
2017-07-29T11:32:53.690Z,65.50
2017-07-29T11:35:21.979Z,65.20
2017-07-29T11:37:50.698Z,62.30
2017-07-29T11:40:20.123Z,61.00
2017-07-29T11:42:48.406Z,60.40
2017-07-29T11:45:17.138Z,61.00
2017-07-29T11:47:46.925Z,61.40
2017-07-29T11:50:15.199Z,61.00
2017-07-29T11:55:13.422Z,58.90
2017-07-29T12:00:13.018Z,58.30
2017-07-29T12:05:11.186Z,59.00
2017-07-29T12:10:09.428Z,59.40
2017-07-29T12:12:37.713Z,59.60
2017-07-29T12:15:06.089Z,61.80
2017-07-29T12:20:03.879Z,61.10
2017-07-29T12:22:32.778Z,60.10
2017-07-29T12:25:02.186Z,60.20
2017-07-29T12:30:00.675Z,62.80
2017-07-29T12:32:28.963Z,64.50
2017-07-29T12:34:57.310Z,60.40
2017-07-29T12:37:26.350Z,61.20
2017-07-29T12:42:24.943Z,57.30
2017-07-29T12:47:23.121Z,59.70
2017-07-29T12:49:51.754Z,59.50
2017-07-29T12:52:20.030Z,62.20
2017-07-29T12:54:49.082Z,61.40
2017-07-29T12:57:17.446Z,60.30
2017-07-29T12:59:45.715Z,59.00
2017-07-29T13:02:13.982Z,58.40
2017-07-29T13:04:44.066Z,60.80
2017-07-29T13:07:12.346Z,60.20
2017-07-29T13:12:10.915Z,62.50
2017-07-29T13:14:40.696Z,63.60
2017-07-29T13:19:39.319Z,64.80
2017-07-29T13:22:08.385Z,63.90
2017-07-29T13:24:36.667Z,63.20
2017-07-29T13:27:04.983Z,64.80
2017-07-29T13:29:33.254Z,65.90
2017-07-29T13:32:03.042Z,68.00
2017-07-29T13:34:31.378Z,67.80
2017-07-29T13:36:59.652Z,67.70
2017-07-29T13:39:27.918Z,64.60
2017-07-29T13:41:57.374Z,65.60
2017-07-29T13:46:55.919Z,65.70
2017-07-29T13:49:24.246Z,65.90
2017-07-29T13:51:52.536Z,66.50
2017-07-29T13:56:51.376Z,67.20
2017-07-29T13:59:20.063Z,64.10
2017-07-29T14:01:49.134Z,66.30
2017-07-29T14:06:48.527Z,62.30
2017-07-29T14:11:46.788Z,62.00
2017-07-29T14:16:45.711Z,62.80
2017-07-29T14:19:15.514Z,63.90
2017-07-29T14:21:43.800Z,66.30
2017-07-29T14:24:12.068Z,65.50
2017-07-29T14:26:40.679Z,65.40
2017-07-29T14:31:38.464Z,66.80
2017-07-29T14:34:06.800Z,63.90
2017-07-29T14:39:04.634Z,66.40
2017-07-29T14:41:32.979Z,67.20
2017-07-29T14:44:04.610Z,66.30
2017-07-29T14:49:02.451Z,66.00
2017-07-29T14:51:30.803Z,66.10
2017-07-29T14:53:59.401Z,67.40
2017-07-29T14:56:27.679Z,67.00
2017-07-29T14:58:56.714Z,66.30
2017-07-29T15:01:25.619Z,67.00
2017-07-29T15:03:55.059Z,67.50
2017-07-29T15:06:24.098Z,69.30
2017-07-29T15:08:53.839Z,69.60
2017-07-29T15:11:22.148Z,70.60
2017-07-29T15:13:50.447Z,70.10
2017-07-29T15:16:18.786Z,71.20
2017-07-29T15:18:48.582Z,69.50
2017-07-29T15:23:47.967Z,71.10
2017-07-29T15:31:16.256Z,68.40
2017-07-29T15:33:44.526Z,69.00
2017-07-29T15:36:13.118Z,69.80
2017-07-29T15:38:42.535Z,70.70
2017-07-29T15:41:10.831Z,71.10
2017-07-29T15:46:09.070Z,71.30
2017-07-29T15:51:07.666Z,70.20
2017-07-29T15:53:35.943Z,70.10
2017-07-29T15:56:04.220Z,70.50
2017-07-29T15:58:32.558Z,70.30
2017-07-29T16:01:01.226Z,72.50
2017-07-29T16:03:29.502Z,69.00
2017-07-29T16:05:58.223Z,69.80
2017-07-29T16:08:26.913Z,70.90
2017-07-29T16:13:26.229Z,69.00
2017-07-29T16:15:54.623Z,69.40
2017-07-29T16:18:24.423Z,68.10
2017-07-29T16:20:53.130Z,69.50
2017-07-29T16:23:21.427Z,68.80
2017-07-29T16:33:19.337Z,67.80
2017-07-29T16:38:17.996Z,68.70
2017-07-29T16:43:16.222Z,69.10
2017-07-29T16:45:44.499Z,68.90
2017-07-29T16:48:12.779Z,68.90
2017-07-29T16:50:41.887Z,68.90
2017-07-29T16:53:10.170Z,69.50
2017-07-29T16:55:38.450Z,69.70
2017-07-29T16:58:06.803Z,69.60
2017-07-29T17:00:36.218Z,69.70
2017-07-29T17:03:04.707Z,70.30
2017-07-29T17:05:33.048Z,69.30
2017-07-29T17:08:01.323Z,69.90
2017-07-29T17:10:29.595Z,69.10
2017-07-29T17:12:59.394Z,68.70
2017-07-29T17:15:31.390Z,68.40
2017-07-29T17:17:59.690Z,69.40
2017-07-29T17:22:57.990Z,69.10
2017-07-29T17:27:56.854Z,68.20
2017-07-29T17:30:25.530Z,67.30
2017-07-29T17:32:53.816Z,67.70
2017-07-29T17:37:52.071Z,67.40
2017-07-29T17:42:50.307Z,68.30
2017-07-29T17:45:18.623Z,68.20
2017-07-29T17:47:46.919Z,67.80
2017-07-29T17:52:45.086Z,68.30
2017-07-29T17:55:14.871Z,68.40
2017-07-29T17:57:44.358Z,68.10
2017-07-29T18:00:13.390Z,68.20
2017-07-29T18:02:41.688Z,68.30
2017-07-29T18:05:10.274Z,68.70
2017-07-29T18:07:38.555Z,68.70
2017-07-29T18:10:08.335Z,68.70
2017-07-29T18:12:36.786Z,69.10
2017-07-29T18:15:05.455Z,69.20
2017-07-29T18:17:33.734Z,68.60
2017-07-29T18:25:02.659Z,69.30
2017-07-29T18:27:31.254Z,69.90
2017-07-29T18:30:01.034Z,70.70
2017-07-29T18:32:29.310Z,70.60
2017-07-29T18:34:57.639Z,70.60
2017-07-29T18:37:27.110Z,69.80
2017-07-29T18:39:55.455Z,70.60
2017-07-29T18:42:25.436Z,70.80
2017-07-29T18:44:53.783Z,70.30
2017-07-29T18:47:22.176Z,70.10
2017-07-29T18:49:52.968Z,70.90
2017-07-29T18:52:21.493Z,70.50
2017-07-29T18:54:51.442Z,70.80
2017-07-29T18:57:19.916Z,70.90
2017-07-29T18:59:49.774Z,70.90
2017-07-29T19:02:18.118Z,71.00
2017-07-29T19:04:46.730Z,71.50
2017-07-29T19:07:16.202Z,71.70
2017-07-29T19:09:44.483Z,72.30
2017-07-29T19:12:13.096Z,72.50
2017-07-29T19:14:42.507Z,73.20
2017-07-29T19:17:10.778Z,73.80
2017-07-29T19:19:39.107Z,74.40
2017-07-29T19:24:37.299Z,74.80
2017-07-29T19:27:05.635Z,74.80
2017-07-29T19:29:33.910Z,75.10
2017-07-29T19:34:32.561Z,75.30
2017-07-29T19:37:01.254Z,75.50
2017-07-29T19:39:29.532Z,75.80
2017-07-29T19:41:57.937Z,75.70
2017-07-29T19:44:27.723Z,76.00
2017-07-29T19:46:56.015Z,76.40
2017-07-29T19:49:24.482Z,76.40
2017-07-29T19:51:52.818Z,76.50
2017-07-29T19:54:21.107Z,75.40
2017-07-29T19:56:50.910Z,76.20
2017-07-29T19:59:19.211Z,76.60
2017-07-29T20:01:47.558Z,76.70
2017-07-29T20:04:17.031Z,76.90
2017-07-29T20:06:45.344Z,76.90
2017-07-29T20:09:13.615Z,75.90
2017-07-29T20:11:42.042Z,75.80
2017-07-29T20:14:11.111Z,75.50
2017-07-29T20:16:40.166Z,75.60
2017-07-29T20:19:09.396Z,75.50
2017-07-29T20:24:07.596Z,74.90
2017-07-29T20:26:37.450Z,74.30
2017-07-29T20:31:35.664Z,73.20
2017-07-29T20:34:05.049Z,73.30
2017-07-29T20:36:34.155Z,72.30
2017-07-29T20:39:02.419Z,72.40
2017-07-29T20:41:30.915Z,71.80
2017-07-29T20:43:59.187Z,71.20
2017-07-29T20:51:26.523Z,70.80
2017-07-29T20:53:55.570Z,70.70
2017-07-29T20:56:23.930Z,70.90
2017-07-29T20:58:52.978Z,70.80
2017-07-29T21:01:21.269Z,70.80
2017-07-29T21:03:49.656Z,70.90
2017-07-29T21:06:18.721Z,71.10
2017-07-29T21:08:47.771Z,71.10
2017-07-29T21:11:16.102Z,70.70
2017-07-29T21:13:44.374Z,70.70
2017-07-29T21:16:12.643Z,70.80
2017-07-29T21:18:42.105Z,71.20
2017-07-29T21:21:10.402Z,70.90
2017-07-29T21:26:09.022Z,71.20
2017-07-29T21:28:37.304Z,71.20
2017-07-29T21:31:07.103Z,71.40
2017-07-29T21:33:35.489Z,71.30
2017-07-29T21:36:04.544Z,71.60
2017-07-29T21:38:32.832Z,71.50
2017-07-29T21:42:01.031Z,72.10
2017-07-29T21:44:29.310Z,72.50
2017-07-29T21:46:57.610Z,72.80
2017-07-29T21:49:27.434Z,72.90
2017-07-29T21:51:55.838Z,73.10
2017-07-29T21:54:24.506Z,73.10
2017-07-29T21:56:53.644Z,73.30
2017-07-29T21:59:21.933Z,73.60
2017-07-29T22:01:50.240Z,73.80
2017-07-29T22:06:48.491Z,73.90
2017-07-29T22:09:16.784Z,74.10
2017-07-29T22:14:15.031Z,74.30
2017-07-29T22:16:44.447Z,74.30
2017-07-29T22:19:12.787Z,74.60
2017-07-29T22:21:41.872Z,74.80
2017-07-29T22:24:10.920Z,75.90
2017-07-29T22:29:09.142Z,76.10
2017-07-29T22:31:37.454Z,76.30
2017-07-29T22:34:05.797Z,76.40
2017-07-29T22:36:34.070Z,76.80
2017-07-29T22:39:02.352Z,77.10
2017-07-29T22:41:31.874Z,77.60
2017-07-29T22:44:00.174Z,77.70
2017-07-29T22:46:28.453Z,77.70
2017-07-29T22:51:26.675Z,77.40
2017-07-29T22:53:54.947Z,77.90
2017-07-29T22:56:23.295Z,77.80
2017-07-29T22:58:52.358Z,77.40
2017-07-29T23:01:20.794Z,77.60
2017-07-29T23:06:18.740Z,77.40
2017-07-29T23:08:47.472Z,77.40
2017-07-29T23:11:17.332Z,77.40
2017-07-29T23:13:47.124Z,77.40
2017-07-29T23:16:15.398Z,77.30
2017-07-29T23:21:13.231Z,77.50
2017-07-29T23:23:42.282Z,77.30
2017-07-29T23:26:11.015Z,77.20
2017-07-29T23:28:40.809Z,77.30
2017-07-29T23:31:09.128Z,77.40
2017-07-29T23:33:38.594Z,77.30
2017-07-29T23:36:07.311Z,77.50
2017-07-29T23:38:36.358Z,77.50
2017-07-29T23:43:34.570Z,77.40
2017-07-29T23:46:04.354Z,77.70
2017-07-29T23:48:32.711Z,77.80
2017-07-29T23:53:30.881Z,77.70
2017-07-29T23:55:59.276Z,77.60
2017-07-29T23:58:27.544Z,77.40
